createdAt,value
2019-03-04T00:00:44.412Z,12.70
2019-03-04T00:03:14.046Z,12.80
2019-03-04T00:05:42.532Z,12.90
2019-03-04T00:08:10.990Z,12.90
2019-03-04T00:10:39.486Z,13.00
2019-03-04T00:13:08.238Z,13.10
2019-03-04T00:15:36.906Z,13.10
2019-03-04T00:18:06.089Z,13.10
2019-03-04T00:20:34.527Z,13.10
2019-03-04T00:23:02.974Z,13.20
2019-03-04T00:25:31.541Z,13.10
2019-03-04T00:28:00.110Z,13.10
2019-03-04T00:30:28.548Z,13.10
2019-03-04T00:32:57.078Z,13.10
2019-03-04T00:35:28.824Z,13.20
2019-03-04T00:37:57.288Z,13.20
2019-03-04T00:40:25.756Z,13.20
2019-03-04T00:42:54.186Z,13.20
2019-03-04T00:45:22.706Z,13.20
2019-03-04T00:47:51.105Z,13.10
2019-03-04T00:50:20.715Z,13.10
2019-03-04T00:52:49.204Z,13.00
2019-03-04T00:55:17.900Z,13.00
2019-03-04T00:57:46.352Z,13.00
2019-03-04T01:00:22.971Z,13.00
2019-03-04T01:02:51.482Z,13.00
2019-03-04T01:05:20.078Z,13.00
2019-03-04T01:07:48.571Z,13.00
2019-03-04T01:10:17.419Z,13.00
2019-03-04T01:12:45.872Z,12.90
2019-03-04T01:15:22.511Z,12.90
2019-03-04T01:17:51.029Z,12.90
2019-03-04T01:20:19.777Z,12.80
2019-03-04T01:22:48.962Z,12.80
2019-03-04T01:25:19.172Z,12.80
2019-03-04T01:27:47.708Z,12.80
2019-03-04T01:30:18.683Z,12.80
2019-03-04T01:32:47.452Z,12.80
2019-03-04T01:35:15.937Z,12.80
2019-03-04T01:37:44.471Z,12.80
2019-03-04T01:40:21.294Z,12.80
2019-03-04T01:42:49.791Z,12.80
2019-03-04T01:45:18.965Z,12.80
2019-03-04T01:47:47.424Z,12.80
2019-03-04T01:50:17.478Z,12.80
2019-03-04T01:52:46.452Z,12.70
2019-03-04T01:55:17.302Z,12.80
2019-03-04T01:57:45.817Z,12.80
2019-03-04T02:00:16.076Z,12.80
2019-03-04T02:02:45.124Z,12.80
2019-03-04T02:05:14.595Z,12.80
2019-03-04T02:07:43.119Z,12.80
2019-03-04T02:10:16.944Z,12.80
2019-03-04T02:12:45.414Z,12.90
2019-03-04T02:15:16.528Z,12.90
2019-03-04T02:17:44.961Z,12.90
2019-03-04T02:20:18.309Z,12.90
2019-03-04T02:22:47.141Z,12.90
2019-03-04T02:25:18.196Z,12.90
2019-03-04T02:27:52.306Z,12.90
2019-03-04T02:30:26.162Z,13.00
2019-03-04T02:32:55.565Z,12.90
2019-03-04T02:35:24.017Z,12.90
2019-03-04T02:37:52.459Z,13.00
2019-03-04T02:40:20.948Z,13.00
2019-03-04T02:42:49.397Z,12.90
2019-03-04T02:45:19.051Z,13.00
2019-03-04T02:47:48.059Z,13.00
2019-03-04T02:50:16.682Z,13.00
2019-03-04T02:52:45.188Z,13.10
2019-03-04T02:55:15.764Z,13.10
2019-03-04T02:57:44.250Z,13.10
2019-03-04T03:00:16.007Z,13.10
2019-03-04T03:02:44.446Z,13.10
2019-03-04T03:05:13.299Z,13.10
2019-03-04T03:07:41.896Z,13.00
2019-03-04T03:10:12.066Z,12.90
2019-03-04T03:12:40.635Z,12.90
2019-03-04T03:15:15.584Z,12.90
2019-03-04T03:17:43.985Z,12.90
2019-03-04T03:20:13.464Z,12.90
2019-03-04T03:22:41.921Z,12.90
2019-03-04T03:25:11.566Z,12.90
2019-03-04T03:27:40.161Z,12.80
2019-03-04T03:30:19.601Z,12.80
2019-03-04T03:32:48.107Z,12.70
2019-03-04T03:35:16.525Z,12.80
2019-03-04T03:37:45.050Z,12.80
2019-03-04T03:40:20.452Z,12.80
2019-03-04T03:42:49.179Z,12.80
2019-03-04T03:45:17.963Z,12.80
2019-03-04T03:47:46.442Z,12.80
2019-03-04T03:50:16.219Z,12.80
2019-03-04T03:52:45.637Z,12.90
2019-03-04T03:55:15.205Z,12.80
2019-03-04T03:57:43.650Z,12.70
2019-03-04T04:00:19.213Z,12.80
2019-03-04T04:02:47.649Z,12.90
2019-03-04T04:05:16.367Z,12.90
2019-03-04T04:07:44.868Z,12.80
2019-03-04T04:10:14.665Z,12.90
2019-03-04T04:12:43.077Z,13.00
2019-03-04T04:15:16.351Z,12.90
2019-03-04T04:17:44.807Z,12.90
2019-03-04T04:20:13.343Z,12.80
2019-03-04T04:22:41.867Z,12.90
2019-03-04T04:25:11.421Z,12.90
2019-03-04T04:27:39.901Z,12.90
2019-03-04T04:30:15.150Z,12.80
2019-03-04T04:32:43.592Z,12.90
2019-03-04T04:35:12.446Z,13.00
2019-03-04T04:37:40.896Z,12.90
2019-03-04T04:40:13.338Z,12.90
2019-03-04T04:42:41.799Z,12.80
2019-03-04T04:45:10.661Z,12.70
2019-03-04T04:47:40.341Z,12.70
2019-03-04T04:50:14.618Z,12.70
2019-03-04T04:52:43.065Z,12.70
2019-03-04T04:55:11.575Z,12.60
2019-03-04T04:57:40.147Z,12.60
2019-03-04T05:00:13.872Z,12.50
2019-03-04T05:02:42.297Z,12.50
2019-03-04T05:05:10.807Z,12.40
2019-03-04T05:07:39.229Z,12.40
2019-03-04T05:10:10.712Z,12.40
2019-03-04T05:12:39.169Z,12.40
2019-03-04T05:15:10.121Z,12.30
2019-03-04T05:17:39.781Z,12.30
2019-03-04T05:20:11.448Z,12.30
2019-03-04T05:22:39.928Z,12.30
2019-03-04T05:25:08.916Z,12.40
2019-03-04T05:27:37.353Z,12.40
2019-03-04T05:30:11.669Z,12.40
2019-03-04T05:32:40.082Z,12.50
2019-03-04T05:35:08.597Z,12.50
2019-03-04T05:37:37.040Z,12.60
2019-03-04T05:40:08.567Z,12.60
2019-03-04T05:42:36.982Z,12.70
2019-03-04T05:45:08.870Z,12.70
2019-03-04T05:47:37.275Z,12.80
2019-03-04T05:50:09.132Z,12.80
2019-03-04T05:52:37.590Z,12.90
2019-03-04T05:55:08.919Z,12.80
2019-03-04T05:57:37.390Z,12.80
2019-03-04T06:00:11.714Z,12.90
2019-03-04T06:02:40.128Z,12.90
2019-03-04T06:05:10.412Z,12.90
2019-03-04T06:07:43.197Z,13.00
2019-03-04T06:10:12.486Z,13.00
2019-03-04T06:12:41.126Z,13.00
2019-03-04T06:15:12.284Z,13.10
2019-03-04T06:17:40.712Z,13.00
2019-03-04T06:20:11.695Z,12.90
2019-03-04T06:22:40.107Z,12.90
2019-03-04T06:25:11.700Z,12.90
2019-03-04T06:27:40.100Z,12.90
2019-03-04T06:30:20.125Z,12.80
2019-03-04T06:32:48.532Z,12.70
2019-03-04T06:35:17.021Z,12.60
2019-03-04T06:37:45.458Z,12.50
2019-03-04T06:40:16.477Z,12.40
2019-03-04T06:42:45.069Z,11.50
2019-03-04T06:45:15.964Z,11.00
2019-03-04T06:47:44.864Z,10.70
2019-03-04T06:50:46.873Z,10.60
2019-03-04T06:53:33.404Z,10.60
2019-03-04T06:56:14.036Z,10.40
2019-03-04T06:58:48.248Z,10.30
2019-03-04T07:01:19.988Z,10.40
2019-03-04T07:03:50.271Z,10.40
2019-03-04T07:06:18.680Z,10.50
2019-03-04T07:08:50.205Z,10.70
2019-03-04T07:11:18.609Z,10.90
2019-03-04T07:13:47.065Z,11.00
2019-03-04T07:16:15.484Z,11.00
2019-03-04T07:18:43.897Z,11.20
2019-03-04T07:21:12.404Z,11.30
2019-03-04T07:23:40.820Z,11.30
2019-03-04T07:26:09.232Z,11.30
2019-03-04T07:28:37.748Z,11.30
2019-03-04T07:31:06.566Z,11.30
2019-03-04T07:33:35.468Z,11.30
2019-03-04T07:36:03.881Z,11.30
2019-03-04T07:38:35.385Z,11.30
2019-03-04T07:41:03.795Z,11.20
2019-03-04T07:43:32.233Z,11.10
2019-03-04T07:46:00.684Z,10.90
2019-03-04T07:48:29.130Z,10.90
2019-03-04T07:51:00.650Z,11.00
2019-03-04T07:53:29.107Z,11.20
2019-03-04T07:55:57.586Z,11.40
2019-03-04T07:58:26.064Z,11.40
2019-03-04T08:00:54.488Z,11.30
2019-03-04T08:03:22.900Z,11.30
2019-03-04T08:05:51.314Z,11.40
2019-03-04T08:08:19.757Z,11.50
2019-03-04T08:11:05.976Z,11.70
2019-03-04T08:13:37.476Z,11.90
2019-03-04T08:16:07.862Z,12.00
2019-03-04T08:18:36.810Z,11.90
2019-03-04T08:21:05.278Z,11.90
2019-03-04T08:23:33.696Z,11.90
2019-03-04T08:26:02.280Z,11.80
2019-03-04T08:28:30.724Z,11.60
2019-03-04T08:30:59.208Z,11.50
2019-03-04T08:33:27.638Z,11.40
2019-03-04T08:35:56.059Z,11.30
2019-03-04T08:38:24.831Z,11.40
2019-03-04T08:40:53.360Z,11.50
2019-03-04T08:43:21.827Z,11.50
2019-03-04T08:45:50.402Z,11.60
2019-03-04T08:48:18.844Z,11.70
2019-03-04T08:50:48.122Z,11.80
2019-03-04T08:53:16.560Z,11.80
2019-03-04T08:55:45.502Z,11.90
2019-03-04T08:58:14.087Z,12.00
2019-03-04T09:00:42.560Z,12.10
2019-03-04T09:03:11.130Z,12.20
2019-03-04T09:05:39.543Z,12.30
2019-03-04T09:08:08.436Z,12.40
2019-03-04T09:10:37.602Z,12.40
2019-03-04T09:13:06.106Z,12.40
2019-03-04T09:15:34.580Z,12.40
2019-03-04T09:18:03.138Z,12.40
2019-03-04T09:20:31.586Z,12.30
2019-03-04T09:22:59.996Z,12.20
2019-03-04T09:25:30.962Z,12.30
2019-03-04T09:27:59.382Z,12.20
2019-03-04T09:30:27.886Z,12.10
2019-03-04T09:32:56.527Z,12.10
2019-03-04T09:35:25.060Z,12.10
2019-03-04T09:37:53.540Z,12.20
2019-03-04T09:40:23.782Z,12.30
2019-03-04T09:42:52.446Z,12.30
2019-03-04T09:45:20.952Z,12.20
2019-03-04T09:47:49.445Z,12.40
2019-03-04T09:50:19.928Z,12.40
2019-03-04T09:52:48.356Z,12.40
2019-03-04T09:55:18.122Z,12.50
2019-03-04T09:57:46.558Z,12.50
2019-03-04T10:00:26.978Z,12.50
2019-03-04T10:03:14.614Z,12.50
2019-03-04T10:05:48.952Z,12.70
2019-03-04T10:08:20.477Z,12.80
2019-03-04T10:11:08.437Z,12.80
2019-03-04T10:13:43.013Z,13.00
2019-03-04T10:16:23.600Z,13.10
2019-03-04T10:18:57.904Z,12.90
2019-03-04T10:21:41.301Z,13.00
2019-03-04T10:24:34.330Z,13.00
2019-03-04T10:27:28.198Z,13.20
2019-03-04T10:30:02.340Z,13.30
2019-03-04T10:32:45.600Z,13.70
2019-03-04T10:35:31.831Z,13.50
2019-03-04T10:38:27.224Z,13.70
2019-03-04T10:41:16.660Z,14.00
2019-03-04T10:43:53.704Z,14.20
2019-03-04T10:46:25.220Z,14.30
2019-03-04T10:48:53.659Z,14.50
2019-03-04T10:51:22.111Z,14.60
2019-03-04T10:53:50.528Z,14.70
2019-03-04T10:56:18.994Z,14.40
2019-03-04T10:58:47.420Z,14.20
2019-03-04T11:01:15.981Z,14.10
2019-03-04T11:03:44.445Z,13.90
2019-03-04T11:06:12.867Z,13.80
2019-03-04T11:08:42.220Z,13.70
2019-03-04T11:11:10.668Z,13.60
2019-03-04T11:13:39.096Z,13.50
2019-03-04T11:16:07.608Z,13.30
2019-03-04T11:18:36.065Z,13.10
2019-03-04T11:21:04.658Z,13.10
2019-03-04T11:23:33.067Z,13.00
2019-03-04T11:26:01.609Z,12.90
2019-03-04T11:28:30.693Z,12.80
2019-03-04T11:30:59.219Z,12.80
2019-03-04T11:33:28.362Z,12.60
2019-03-04T11:35:56.809Z,12.60
2019-03-04T11:38:39.189Z,12.60
2019-03-04T11:41:09.463Z,12.80
2019-03-04T11:43:37.891Z,12.60
2019-03-04T11:46:06.426Z,12.50
2019-03-04T11:48:34.875Z,12.50
2019-03-04T11:51:03.311Z,12.40
2019-03-04T11:53:31.731Z,12.40
2019-03-04T11:56:00.165Z,11.50
2019-03-04T11:58:28.600Z,10.60
2019-03-04T12:01:10.424Z,10.00
2019-03-04T12:03:38.920Z,9.40
2019-03-04T12:06:08.024Z,8.90
2019-03-04T12:08:36.521Z,8.80
2019-03-04T12:11:05.137Z,8.60
2019-03-04T12:13:33.665Z,8.60
2019-03-04T12:16:02.401Z,8.30
2019-03-04T12:18:31.032Z,8.30
2019-03-04T12:20:59.631Z,8.40
2019-03-04T12:23:28.039Z,8.40
2019-03-04T12:25:56.528Z,8.40
2019-03-04T12:28:25.116Z,8.50
2019-03-04T12:30:53.589Z,8.40
2019-03-04T12:33:22.018Z,8.50
2019-03-04T12:35:50.517Z,8.50
2019-03-04T12:38:18.962Z,8.50
2019-03-04T12:40:47.382Z,8.50
2019-03-04T12:43:15.784Z,8.50
2019-03-04T12:45:45.130Z,8.60
2019-03-04T12:48:13.571Z,8.60
2019-03-04T12:50:42.044Z,8.50
2019-03-04T12:53:10.532Z,8.50
2019-03-04T12:55:38.964Z,8.60
2019-03-04T12:58:07.535Z,8.70
2019-03-04T13:00:36.361Z,8.80
2019-03-04T13:03:04.911Z,9.10
2019-03-04T13:05:33.357Z,9.20
2019-03-04T13:08:01.959Z,9.30
2019-03-04T13:10:31.742Z,9.40
2019-03-04T13:13:00.352Z,9.50
2019-03-04T13:15:33.399Z,9.50
2019-03-04T13:18:01.877Z,9.50
2019-03-04T13:20:31.975Z,9.60
2019-03-04T13:23:00.442Z,9.50
2019-03-04T13:25:28.862Z,9.60
2019-03-04T13:28:07.313Z,9.50
2019-03-04T13:30:32.237Z,9.60
2019-03-04T13:33:00.646Z,9.60
2019-03-04T13:35:31.429Z,9.60
2019-03-04T13:37:59.985Z,9.40
2019-03-04T13:40:30.061Z,9.30
2019-03-04T13:42:58.567Z,9.40
2019-03-04T13:45:28.095Z,9.60
2019-03-04T13:47:56.944Z,9.60
2019-03-04T13:50:28.437Z,9.50
2019-03-04T13:52:57.780Z,9.50
2019-03-04T13:55:26.875Z,9.50
2019-03-04T13:57:55.691Z,9.50
2019-03-04T14:00:35.921Z,9.60
2019-03-04T14:03:04.758Z,9.70
2019-03-04T14:05:33.266Z,9.70
2019-03-04T14:08:01.686Z,10.20
2019-03-04T14:10:44.218Z,10.20
2019-03-04T14:13:13.833Z,10.00
2019-03-04T14:15:56.861Z,10.20
2019-03-04T14:18:25.358Z,10.20
2019-03-04T14:20:53.885Z,10.10
2019-03-04T14:23:22.372Z,10.00
2019-03-04T14:25:50.813Z,9.90
2019-03-04T14:28:19.375Z,9.90
2019-03-04T14:30:48.424Z,10.10
2019-03-04T14:33:16.815Z,10.60
2019-03-04T14:35:45.309Z,10.80
2019-03-04T14:38:13.764Z,10.80
2019-03-04T14:40:42.188Z,10.80
2019-03-04T14:43:10.627Z,10.70
2019-03-04T14:45:39.109Z,10.70
2019-03-04T14:48:07.549Z,10.60
2019-03-04T14:50:35.991Z,10.80
2019-03-04T14:53:04.643Z,10.70
2019-03-04T14:55:43.897Z,10.60
2019-03-04T14:58:12.359Z,10.60
2019-03-04T15:00:43.961Z,10.90
2019-03-04T15:03:22.830Z,10.80
2019-03-04T15:05:42.695Z,10.90
2019-03-04T15:08:11.141Z,10.80
2019-03-04T15:10:39.573Z,10.70
2019-03-04T15:13:09.868Z,10.70
2019-03-04T15:15:38.149Z,10.90
2019-03-04T15:18:06.701Z,10.80
2019-03-04T15:20:35.377Z,11.00
2019-03-04T15:23:03.969Z,10.90
2019-03-04T15:25:33.832Z,10.50
2019-03-04T15:28:19.173Z,10.40
2019-03-04T15:30:49.925Z,10.30
2019-03-04T15:33:18.880Z,10.30
2019-03-04T15:35:47.747Z,10.30
2019-03-04T15:38:16.205Z,10.20
2019-03-04T15:40:44.810Z,10.20
2019-03-04T15:43:13.226Z,10.20
2019-03-04T15:45:43.391Z,10.30
2019-03-04T15:48:11.942Z,10.30
2019-03-04T15:50:40.466Z,10.30
2019-03-04T15:53:08.963Z,10.20
2019-03-04T15:55:37.380Z,10.30
2019-03-04T15:58:06.133Z,10.30
2019-03-04T16:00:35.440Z,10.30
2019-03-04T16:03:05.262Z,10.30
2019-03-04T16:05:33.810Z,10.30
2019-03-04T16:08:07.707Z,10.30
2019-03-04T16:10:37.518Z,10.30
2019-03-04T16:13:07.396Z,10.30
2019-03-04T16:15:38.184Z,10.20
2019-03-04T16:18:06.731Z,10.20
2019-03-04T16:20:35.140Z,10.20
2019-03-04T16:23:03.588Z,10.20
2019-03-04T16:25:32.047Z,10.30
2019-03-04T16:28:03.578Z,10.20
2019-03-04T16:30:31.996Z,10.20
2019-03-04T16:33:00.480Z,10.20
2019-03-04T16:35:30.232Z,10.20
2019-03-04T16:37:58.684Z,10.10
2019-03-04T16:40:27.872Z,10.00
2019-03-04T16:42:57.984Z,10.00
2019-03-04T16:45:26.572Z,9.90
2019-03-04T16:47:55.190Z,9.80
2019-03-04T16:50:26.513Z,9.70
2019-03-04T16:53:03.597Z,9.70
2019-03-04T16:55:32.509Z,9.60
2019-03-04T16:58:03.707Z,9.50
2019-03-04T17:00:33.895Z,9.40
2019-03-04T17:03:02.599Z,9.40
2019-03-04T17:05:32.710Z,9.30
2019-03-04T17:08:05.660Z,9.20
2019-03-04T17:10:34.167Z,9.20
2019-03-04T17:13:04.863Z,9.10
2019-03-04T17:15:34.075Z,9.10
2019-03-04T17:18:03.369Z,9.00
2019-03-04T17:20:34.663Z,8.90
2019-03-04T17:23:05.166Z,8.90
2019-03-04T17:25:34.186Z,8.80
2019-03-04T17:28:02.844Z,8.80
2019-03-04T17:30:31.465Z,8.80
2019-03-04T17:33:00.516Z,8.70
2019-03-04T17:35:29.340Z,8.70
2019-03-04T17:38:03.958Z,8.70
2019-03-04T17:40:32.654Z,8.70
2019-03-04T17:43:04.264Z,8.60
2019-03-04T17:45:34.482Z,8.60
2019-03-04T17:48:03.343Z,8.70
2019-03-04T17:50:41.164Z,8.70
2019-03-04T17:53:12.214Z,8.70
2019-03-04T17:55:40.734Z,8.60
2019-03-04T17:58:09.144Z,8.60
2019-03-04T18:00:39.468Z,8.60
2019-03-04T18:03:08.048Z,8.60
2019-03-04T18:05:36.544Z,8.80
2019-03-04T18:08:05.134Z,9.60
2019-03-04T18:10:33.600Z,9.80
2019-03-04T18:13:04.982Z,9.90
2019-03-04T18:15:38.862Z,9.50
2019-03-04T18:18:07.448Z,9.40
2019-03-04T18:20:36.079Z,9.30
2019-03-04T18:23:04.635Z,9.30
2019-03-04T18:25:47.617Z,9.40
2019-03-04T18:28:41.409Z,9.40
2019-03-04T18:31:31.487Z,9.10
2019-03-04T18:34:08.674Z,8.80
2019-03-04T18:36:55.174Z,8.60
2019-03-04T18:39:37.826Z,8.50
2019-03-04T18:42:32.770Z,8.50
2019-03-04T18:45:25.603Z,8.50
2019-03-04T18:48:16.340Z,8.50
2019-03-04T18:50:44.753Z,8.40
2019-03-04T18:53:14.743Z,8.40
2019-03-04T18:55:43.387Z,8.30
2019-03-04T18:58:12.023Z,8.30
2019-03-04T19:00:40.573Z,8.30
2019-03-04T19:03:09.006Z,8.20
2019-03-04T19:05:37.423Z,8.20
2019-03-04T19:08:05.938Z,8.20
2019-03-04T19:10:34.378Z,8.20
2019-03-04T19:13:02.862Z,8.10
2019-03-04T19:15:31.346Z,8.10
2019-03-04T19:18:00.060Z,8.10
2019-03-04T19:20:28.628Z,8.70
2019-03-04T19:22:57.083Z,8.90
2019-03-04T19:25:25.526Z,8.60
2019-03-04T19:27:53.935Z,8.30
2019-03-04T19:30:22.378Z,8.20
2019-03-04T19:32:50.800Z,8.00
2019-03-04T19:35:19.252Z,8.00
2019-03-04T19:37:47.817Z,8.00
2019-03-04T19:40:17.290Z,7.90
2019-03-04T19:42:45.792Z,7.90
2019-03-04T19:45:19.043Z,7.90
2019-03-04T19:47:47.612Z,7.80
2019-03-04T19:50:16.186Z,7.80
2019-03-04T19:52:44.839Z,7.80
2019-03-04T19:55:17.164Z,7.80
2019-03-04T19:57:46.178Z,7.70
2019-03-04T20:00:25.018Z,7.70
2019-03-04T20:02:54.091Z,7.60
2019-03-04T20:05:23.644Z,7.50
2019-03-04T20:07:53.609Z,7.50
2019-03-04T20:10:22.302Z,7.50
2019-03-04T20:12:50.829Z,7.60
2019-03-04T20:15:35.588Z,7.60
2019-03-04T20:18:04.381Z,7.60
2019-03-04T20:20:32.937Z,7.70
2019-03-04T20:23:01.529Z,7.80
2019-03-04T20:25:30.222Z,7.80
2019-03-04T20:27:59.994Z,7.90
2019-03-04T20:30:28.467Z,7.90
2019-03-04T20:32:56.992Z,7.90
2019-03-04T20:35:25.495Z,8.00
2019-03-04T20:38:00.111Z,8.10
2019-03-04T20:40:28.631Z,8.10
2019-03-04T20:42:57.074Z,8.10
2019-03-04T20:45:25.586Z,8.20
2019-03-04T20:47:54.072Z,8.20
2019-03-04T20:50:23.767Z,8.20
2019-03-04T20:52:52.534Z,8.20
2019-03-04T20:55:21.868Z,8.20
2019-03-04T20:57:50.549Z,8.10
2019-03-04T21:00:36.340Z,8.10
2019-03-04T21:03:08.525Z,8.10
2019-03-04T21:05:37.492Z,8.00
2019-03-04T21:08:07.110Z,7.90
2019-03-04T21:10:35.810Z,7.90
2019-03-04T21:13:09.239Z,7.90
2019-03-04T21:15:38.872Z,7.80
2019-03-04T21:18:07.402Z,7.80
2019-03-04T21:20:36.017Z,7.80
2019-03-04T21:23:04.725Z,7.80
2019-03-04T21:25:41.378Z,7.80
2019-03-04T21:28:18.416Z,7.80
2019-03-04T21:30:58.716Z,7.90
2019-03-04T21:33:30.230Z,7.90
2019-03-04T21:36:04.326Z,7.90
2019-03-04T21:38:32.753Z,7.90
2019-03-04T21:41:09.804Z,7.90
2019-03-04T21:43:41.311Z,7.90
2019-03-04T21:46:24.767Z,7.90
2019-03-04T21:48:59.348Z,8.00
2019-03-04T21:51:51.458Z,8.00
2019-03-04T21:54:20.028Z,8.00
2019-03-04T21:57:03.381Z,8.00
2019-03-04T21:59:31.946Z,8.00
2019-03-04T22:02:15.519Z,8.00
2019-03-04T22:04:44.343Z,7.90
2019-03-04T22:07:15.098Z,8.00
2019-03-04T22:09:43.947Z,8.00
2019-03-04T22:12:13.810Z,8.00
2019-03-04T22:14:42.474Z,8.00
2019-03-04T22:17:11.068Z,8.00
2019-03-04T22:19:39.466Z,8.00
2019-03-04T22:22:07.967Z,8.00
2019-03-04T22:24:36.418Z,7.90
2019-03-04T22:27:04.973Z,7.90
2019-03-04T22:29:33.587Z,7.90
2019-03-04T22:32:02.140Z,7.90
2019-03-04T22:34:30.642Z,7.90
2019-03-04T22:36:59.123Z,7.90
2019-03-04T22:39:27.539Z,7.90
2019-03-04T22:41:56.060Z,8.00
2019-03-04T22:44:24.487Z,8.00
2019-03-04T22:46:53.613Z,8.00
2019-03-04T22:49:22.026Z,8.00
2019-03-04T22:51:50.529Z,8.00
2019-03-04T22:54:18.959Z,8.00
2019-03-04T22:56:47.404Z,8.00
2019-03-04T22:59:15.889Z,8.10
2019-03-04T23:01:47.499Z,8.10
2019-03-04T23:04:18.005Z,8.10
2019-03-04T23:07:07.001Z,8.10
2019-03-04T23:09:38.576Z,8.10
2019-03-04T23:12:27.895Z,8.20
2019-03-04T23:14:56.311Z,8.10
2019-03-04T23:17:24.761Z,8.10
2019-03-04T23:19:53.197Z,8.00
2019-03-04T23:22:21.669Z,8.10
2019-03-04T23:24:50.125Z,8.00
2019-03-04T23:27:18.554Z,8.00
2019-03-04T23:29:46.973Z,7.80
2019-03-04T23:32:15.485Z,7.80
2019-03-04T23:34:43.895Z,7.80
2019-03-04T23:37:12.713Z,7.80
2019-03-04T23:39:41.112Z,7.70
2019-03-04T23:42:09.531Z,7.70
2019-03-04T23:44:37.965Z,7.70
2019-03-04T23:47:06.395Z,7.70
2019-03-04T23:49:34.828Z,7.60
2019-03-04T23:52:03.281Z,7.60
2019-03-04T23:54:31.708Z,7.60
2019-03-04T23:57:00.154Z,7.60
2019-03-04T23:59:28.572Z,7.60
